Time;durP1;ratioP1;P1;durP2;ratioP2;P2;SDS_P1;SDS_P2;PMS_P1;PMS_P2;Temp;Humidity;BMP_temperature;BMP_pressure;BME280_temperature;BME280_humidity;BME280_pressure;Samples;Min_cycle;Max_cycle;Signal;HPM_P1;HPM_P2
2021/01/14 00:01:06;;;;;;;4.65;0.82;;;1.20;88.70;;;;;;5025687;28;20530;-78
2021/01/14 00:03:32;;;;;;;10.68;1.05;;;1.20;88.80;;;;;;5025033;28;20411;-77
2021/01/14 00:05:57;;;;;;;5.20;0.50;;;1.20;89.00;;;;;;5025675;28;20049;-78
2021/01/14 00:08:23;;;;;;;5.70;0.50;;;1.20;90.00;;;;;;5024795;28;20695;-77
2021/01/14 00:10:49;;;;;;;3.88;0.65;;;1.20;89.40;;;;;;5024593;28;20049;-77
2021/01/14 00:13:15;;;;;;;7.18;0.70;;;1.10;90.00;;;;;;5030056;28;20410;-77
2021/01/14 00:15:40;;;;;;;7.90;0.68;;;1.20;89.90;;;;;;5025787;28;20467;-77
2021/01/14 00:18:06;;;;;;;8.25;0.80;;;1.10;90.00;;;;;;5027933;28;20049;-77
2021/01/14 00:20:32;;;;;;;5.75;0.57;;;1.20;90.20;;;;;;5027773;28;20037;-78
2021/01/14 00:22:58;;;;;;;13.30;0.98;;;1.10;90.30;;;;;;5028779;28;20045;-77
2021/01/14 00:25:24;;;;;;;6.13;0.47;;;1.10;90.30;;;;;;5027763;28;20045;-78
2021/01/14 00:27:51;;;;;;;7.35;0.88;;;1.20;90.40;;;;;;5028004;28;20038;-78
2021/01/14 00:30:23;;;;;;;12.05;0.80;;;1.20;90.50;;;;;;5027186;28;20052;-77
2021/01/14 00:32:49;;;;;;;6.80;0.80;;;1.20;90.30;;;;;;5027840;28;20107;-78
2021/01/14 00:35:15;;;;;;;6.07;0.70;;;1.30;90.20;;;;;;5028699;28;20511;-77
2021/01/14 00:37:50;;;;;;;7.45;0.73;;;1.30;90.30;;;;;;5029924;28;20127;-78
2021/01/14 00:40:29;;;;;;;6.25;0.60;;;1.30;91.20;;;;;;5025232;28;20175;-78
2021/01/14 00:42:54;;;;;;;6.03;0.90;;;1.50;91.20;;;;;;5028143;28;20124;-78
2021/01/14 00:45:20;;;;;;;8.35;0.77;;;1.30;90.90;;;;;;5021162;28;20598;-78
2021/01/14 00:47:46;;;;;;;7.70;0.70;;;1.30;91.10;;;;;;5026407;28;20037;-77
2021/01/14 00:50:12;;;;;;;10.38;1.65;;;1.30;91.30;;;;;;5027617;28;20033;-77
2021/01/14 00:52:37;;;;;;;6.75;1.08;;;1.20;91.30;;;;;;5028235;28;20121;-78
2021/01/14 00:55:03;;;;;;;7.78;0.57;;;1.30;91.30;;;;;;5029273;28;20439;-78
2021/01/14 00:57:29;;;;;;;10.65;0.68;;;1.30;91.40;;;;;;5024343;28;20037;-78
2021/01/14 00:59:54;;;;;;;7.20;0.70;;;1.30;91.30;;;;;;5025984;28;20041;-78
2021/01/14 01:02:20;;;;;;;8.95;0.70;;;1.30;91.40;;;;;;5026743;28;20091;-77
2021/01/14 01:04:46;;;;;;;5.90;0.60;;;1.30;91.60;;;;;;5025217;28;20033;-78
2021/01/14 01:07:12;;;;;;;9.35;0.90;;;1.30;91.40;;;;;;5026546;28;20464;-77
2021/01/14 01:09:38;;;;;;;4.82;1.23;;;1.40;91.40;;;;;;5025060;28;20087;-77
2021/01/14 01:12:05;;;;;;;5.22;0.80;;;1.20;91.40;;;;;;5027125;28;20045;-77
2021/01/14 01:14:31;;;;;;;7.18;1.25;;;1.30;91.50;;;;;;5026169;28;20050;-78
2021/01/14 01:16:57;;;;;;;6.78;0.60;;;1.30;91.40;;;;;;5026982;28;20037;-77
2021/01/14 01:19:22;;;;;;;10.48;0.70;;;1.30;91.40;;;;;;5026152;28;20119;-78
2021/01/14 01:21:48;;;;;;;3.78;0.57;;;1.30;91.40;;;;;;5027358;28;20114;-78
2021/01/14 01:24:14;;;;;;;14.20;1.23;;;1.30;91.40;;;;;;5025392;28;20065;-78
2021/01/14 01:26:40;;;;;;;8.80;1.35;;;1.30;91.40;;;;;;5027163;28;20041;-77
2021/01/14 01:29:06;;;;;;;12.63;1.20;;;1.30;91.50;;;;;;5028125;28;20038;-78
2021/01/14 01:31:31;;;;;;;19.50;1.45;;;1.20;91.40;;;;;;5025487;28;20053;-78
2021/01/14 01:33:57;;;;;;;11.73;1.33;;;1.30;91.50;;;;;;5024498;28;20057;-77
2021/01/14 01:36:23;;;;;;;7.97;0.90;;;1.20;91.50;;;;;;5028295;28;20037;-77
2021/01/14 01:38:50;;;;;;;13.55;0.70;;;1.20;91.50;;;;;;5023891;28;20042;-78
2021/01/14 01:41:16;;;;;;;3.85;0.55;;;1.20;91.60;;;;;;5024094;28;20045;-77
2021/01/14 01:43:42;;;;;;;6.63;0.63;;;1.20;91.50;;;;;;5026752;28;20117;-77
2021/01/14 01:46:07;;;;;;;5.93;0.50;;;1.10;91.60;;;;;;5028488;28;20108;-78
2021/01/14 01:48:33;;;;;;;4.82;0.65;;;1.10;91.50;;;;;;5026970;28;20037;-78
2021/01/14 01:51:01;;;;;;;8.20;0.60;;;1.10;92.00;;;;;;5026950;28;20044;-78
2021/01/14 01:53:29;;;;;;;6.88;1.27;;;1.10;91.80;;;;;;5024715;28;20037;-78
2021/01/14 01:55:55;;;;;;;3.83;0.68;;;1.00;91.90;;;;;;5028044;28;20412;-78
2021/01/14 01:58:22;;;;;;;4.05;0.70;;;1.00;91.80;;;;;;5025602;28;20033;-77
2021/01/14 02:00:51;;;;;;;10.43;1.17;;;1.00;91.80;;;;;;5025196;28;20437;-78
2021/01/14 02:03:17;;;;;;;9.93;1.13;;;1.00;91.80;;;;;;5027096;28;20033;-77
2021/01/14 02:05:43;;;;;;;9.65;0.88;;;1.00;91.90;;;;;;5027036;28;20479;-77
2021/01/14 02:08:09;;;;;;;8.98;0.75;;;1.00;91.90;;;;;;5024375;28;20399;-78
2021/01/14 02:10:39;;;;;;;9.63;0.82;;;0.90;91.90;;;;;;5026328;28;20450;-77
2021/01/14 02:13:15;;;;;;;11.73;1.52;;;0.90;92.00;;;;;;5024173;28;20038;-78
2021/01/14 02:15:43;;;;;;;2.85;0.50;;;0.90;92.00;;;;;;5023029;28;20037;-77
2021/01/14 02:18:09;;;;;;;4.20;0.60;;;0.90;92.10;;;;;;5028172;28;20380;-78
2021/01/14 02:20:37;;;;;;;5.93;0.45;;;0.90;92.00;;;;;;5027029;28;20052;-78
2021/01/14 02:23:26;;;;;;;9.27;0.80;;;0.90;92.10;;;;;;5028276;28;20034;-78
2021/01/14 02:26:25;;;;;;;2.42;0.57;;;0.80;92.10;;;;;;5023674;28;20033;-77
2021/01/14 02:28:54;;;;;;;4.82;0.77;;;0.90;92.10;;;;;;5021247;28;20041;-77
2021/01/14 02:31:22;;;;;;;9.68;0.68;;;0.80;92.00;;;;;;5026580;28;20037;-78
2021/01/14 02:33:53;;;;;;;10.13;1.15;;;0.80;92.10;;;;;;5023794;28;20049;-77
2021/01/14 02:36:21;;;;;;;5.93;0.40;;;0.80;92.10;;;;;;5023452;28;20034;-77
2021/01/14 02:38:46;;;;;;;8.45;0.70;;;0.80;92.10;;;;;;5026645;28;20472;-78
2021/01/14 02:41:12;;;;;;;6.78;0.70;;;0.70;92.20;;;;;;5026510;28;20091;-77
2021/01/14 02:43:38;;;;;;;7.68;1.10;;;0.70;92.10;;;;;;5027325;28;20049;-77
2021/01/14 02:46:06;;;;;;;5.32;0.88;;;0.70;92.20;;;;;;5024704;28;20081;-77
2021/01/14 02:48:44;;;;;;;12.07;1.05;;;0.70;92.20;;;;;;5024835;28;20532;-78
2021/01/14 02:51:27;;;;;;;7.28;0.93;;;0.70;92.20;;;;;;5022867;28;20045;-77
2021/01/14 02:53:54;;;;;;;5.88;0.63;;;0.70;92.20;;;;;;5024230;28;20044;-78
2021/01/14 02:56:26;;;;;;;7.80;1.08;;;0.60;92.30;;;;;;5021982;28;20042;-77
2021/01/14 02:58:55;;;;;;;5.07;0.65;;;0.90;92.30;;;;;;5022235;28;20041;-78
2021/01/14 03:01:21;;;;;;;11.43;1.42;;;0.70;92.30;;;;;;5025408;28;20037;-77
2021/01/14 03:03:47;;;;;;;6.90;0.50;;;0.60;92.20;;;;;;5021192;28;20034;-78
2021/01/14 03:06:12;;;;;;;8.18;1.05;;;0.60;92.10;;;;;;5031380;28;20084;-77
2021/01/14 03:08:38;;;;;;;6.45;0.70;;;0.60;92.20;;;;;;5022519;28;20040;-78
2021/01/14 03:11:04;;;;;;;9.07;0.57;;;0.60;92.20;;;;;;5025751;28;20069;-78
2021/01/14 03:13:30;;;;;;;11.38;0.65;;;0.60;92.20;;;;;;5024250;28;20092;-77
2021/01/14 03:15:55;;;;;;;9.02;1.10;;;0.60;92.20;;;;;;5026688;28;20124;-78
2021/01/14 03:18:21;;;;;;;7.57;0.60;;;0.50;92.20;;;;;;5023379;28;20659;-77
2021/01/14 03:20:49;;;;;;;4.57;0.50;;;0.50;92.30;;;;;;5023192;28;20041;-77
2021/01/14 03:23:14;;;;;;;6.40;0.85;;;0.40;92.20;;;;;;5024487;28;20033;-77
2021/01/14 03:25:40;;;;;;;10.77;0.63;;;0.40;92.30;;;;;;5024076;28;20048;-77
2021/01/14 03:28:06;;;;;;;4.03;0.60;;;0.40;92.40;;;;;;5023382;28;20060;-78
2021/01/14 03:30:31;;;;;;;9.40;0.65;;;0.40;92.30;;;;;;5023516;28;20084;-78
2021/01/14 03:32:57;;;;;;;7.75;1.05;;;0.40;92.20;;;;;;5023907;28;20132;-77
2021/01/14 03:35:23;;;;;;;9.80;1.80;;;0.40;92.30;;;;;;5025571;28;20471;-77
2021/01/14 03:37:49;;;;;;;10.35;1.00;;;0.40;92.30;;;;;;5023533;28;20446;-78
2021/01/14 03:40:15;;;;;;;7.65;0.50;;;0.30;92.40;;;;;;5023260;28;20550;-77
2021/01/14 03:42:40;;;;;;;3.88;0.80;;;0.40;92.20;;;;;;5028406;28;20037;-77
2021/01/14 03:45:07;;;;;;;6.22;0.35;;;0.40;92.30;;;;;;5026861;28;20101;-78
2021/01/14 03:47:32;;;;;;;10.43;0.60;;;0.40;92.30;;;;;;5026658;28;20633;-77
2021/01/14 03:49:58;;;;;;;11.55;1.00;;;0.30;92.10;;;;;;5026483;28;20042;-77
2021/01/14 03:52:24;;;;;;;3.95;0.60;;;0.40;92.10;;;;;;5029413;28;20033;-77
2021/01/14 03:54:50;;;;;;;6.78;0.55;;;0.30;92.10;;;;;;5026931;28;20117;-78
2021/01/14 03:57:16;;;;;;;4.05;0.88;;;0.30;92.20;;;;;;5031277;28;20423;-77
2021/01/14 03:59:43;;;;;;;2.22;0.50;;;0.30;92.10;;;;;;5032645;28;20960;-77
2021/01/14 04:02:09;;;;;;;5.45;0.52;;;0.30;92.20;;;;;;5031308;28;20048;-77
2021/01/14 04:04:39;;;;;;;7.57;0.88;;;0.50;92.10;;;;;;5021648;28;20041;-78
2021/01/14 04:07:09;;;;;;;9.15;0.85;;;0.30;92.00;;;;;;5028338;28;20045;-77
2021/01/14 04:09:36;;;;;;;4.82;0.68;;;0.20;92.00;;;;;;5027720;28;20372;-77
2021/01/14 04:12:03;;;;;;;11.20;0.60;;;0.20;92.00;;;;;;5028290;28;20046;-78
2021/01/14 04:14:29;;;;;;;3.88;0.68;;;0.20;92.00;;;;;;5029259;28;20124;-77
2021/01/14 04:16:55;;;;;;;6.53;0.98;;;0.10;91.90;;;;;;5029579;28;20048;-77
2021/01/14 04:19:23;;;;;;;6.07;1.00;;;0.30;92.00;;;;;;5027822;28;20037;-78
2021/01/14 04:21:49;;;;;;;12.95;1.48;;;0.20;91.90;;;;;;5026838;28;20041;-77
2021/01/14 04:24:15;;;;;;;8.55;1.20;;;0.30;91.90;;;;;;5027873;28;20045;-77
2021/01/14 04:26:41;;;;;;;7.30;0.60;;;0.10;91.90;;;;;;5029293;28;20045;-77
2021/01/14 04:29:08;;;;;;;9.75;0.50;;;0.10;92.00;;;;;;5026681;28;20075;-77
2021/01/14 04:31:34;;;;;;;3.83;0.50;;;0.40;92.10;;;;;;5026786;28;20103;-78
2021/01/14 04:34:01;;;;;;;10.23;2.45;;;0.20;92.00;;;;;;5025890;28;20044;-78
2021/01/14 04:36:27;;;;;;;6.43;0.70;;;0.20;92.00;;;;;;5025786;28;20038;-78
2021/01/14 04:38:53;;;;;;;11.77;0.90;;;0.30;92.00;;;;;;5027984;28;20049;-77
2021/01/14 04:41:19;;;;;;;7.20;0.75;;;0.10;91.90;;;;;;5027973;28;20034;-78
2021/01/14 04:43:46;;;;;;;11.55;1.10;;;0.20;92.00;;;;;;5026180;28;20383;-77
2021/01/14 04:46:13;;;;;;;9.20;0.70;;;0.10;92.00;;;;;;5031329;28;20507;-77
2021/01/14 04:48:47;;;;;;;13.98;0.93;;;0.20;92.00;;;;;;5030603;28;20149;-77
2021/01/14 04:51:17;;;;;;;7.85;0.77;;;0.10;92.00;;;;;;5025810;28;20404;-77
2021/01/14 04:53:46;;;;;;;10.90;0.60;;;0.10;92.00;;;;;;5023805;28;20037;-77
2021/01/14 04:56:13;;;;;;;8.57;1.70;;;0.10;92.00;;;;;;5025698;28;20038;-77
2021/01/14 04:58:42;;;;;;;10.70;0.90;;;0.10;91.90;;;;;;5026325;28;20128;-77
2021/01/14 05:01:19;;;;;;;10.77;1.05;;;0.20;91.90;;;;;;5026819;28;20385;-77
2021/01/14 05:03:47;;;;;;;15.02;0.88;;;0.20;91.90;;;;;;5027736;28;20041;-77
2021/01/14 05:06:17;;;;;;;9.88;0.80;;;0.20;91.80;;;;;;5025278;28;20065;-77
2021/01/14 05:08:45;;;;;;;7.25;1.17;;;0.20;91.90;;;;;;5028365;28;20677;-77
2021/01/14 05:11:15;;;;;;;7.25;0.93;;;0.20;91.80;;;;;;5028318;28;20059;-77
2021/01/14 05:13:42;;;;;;;4.90;1.08;;;0.10;91.70;;;;;;5028079;28;20468;-77
2021/01/14 05:16:08;;;;;;;12.93;0.80;;;0.20;91.60;;;;;;5025023;28;20041;-77
2021/01/14 05:18:34;;;;;;;8.05;0.88;;;0.20;91.50;;;;;;5023563;28;20512;-77
2021/01/14 05:21:01;;;;;;;6.35;1.60;;;0.20;91.50;;;;;;5023679;28;20129;-77
2021/01/14 05:23:28;;;;;;;7.32;0.80;;;0.20;91.40;;;;;;5026251;28;20060;-77
2021/01/14 05:25:55;;;;;;;9.25;1.05;;;0.30;91.30;;;;;;5027193;28;20033;-77
2021/01/14 05:28:23;;;;;;;5.10;0.52;;;0.30;91.30;;;;;;5026985;28;20041;-77
2021/01/14 05:30:49;;;;;;;8.27;0.80;;;0.30;91.30;;;;;;5028841;28;20087;-77
2021/01/14 05:33:22;;;;;;;11.25;1.00;;;0.30;91.30;;;;;;5028038;28;20431;-77
2021/01/14 05:35:53;;;;;;;10.30;0.90;;;0.30;91.20;;;;;;5024610;28;20053;-77
2021/01/14 05:38:32;;;;;;;9.25;1.23;;;0.30;91.10;;;;;;5024226;28;20080;-77
2021/01/14 05:41:18;;;;;;;12.15;1.40;;;0.30;91.10;;;;;;5028930;28;20045;-77
2021/01/14 05:43:51;;;;;;;6.18;0.90;;;0.30;91.10;;;;;;5021292;28;20048;-77
2021/01/14 05:46:27;;;;;;;12.02;0.95;;;0.30;91.10;;;;;;5024789;28;20460;-77
2021/01/14 05:48:54;;;;;;;;;;;0.20;91.10;;;;;;5024092;28;20483;-77
2021/01/14 05:51:25;;;;;;;5.20;0.40;;;0.20;91.10;;;;;;5025653;28;20059;-77
2021/01/14 05:53:59;;;;;;;8.48;0.95;;;0.20;91.10;;;;;;5025227;28;20471;-77
2021/01/14 05:56:37;;;;;;;5.18;0.82;;;0.20;91.20;;;;;;5027431;28;20044;-77
2021/01/14 05:59:32;;;;;;;8.38;0.90;;;0.20;91.20;;;;;;5024002;28;20038;-77
2021/01/14 06:02:00;;;;;;;9.40;1.63;;;0.20;91.20;;;;;;5027544;28;20050;-77
2021/01/14 06:04:28;;;;;;;11.27;1.23;;;0.10;91.10;;;;;;5022119;28;20128;-77
2021/01/14 06:07:02;;;;;;;7.45;1.23;;;0.20;91.20;;;;;;5025667;28;21540;-77
2021/01/14 06:09:28;;;;;;;14.48;1.30;;;0.10;91.20;;;;;;5017133;28;20044;-77
2021/01/14 06:12:26;;;;;;;8.75;1.70;;;0.20;91.10;;;;;;5021003;28;20046;-77
2021/01/14 06:14:52;;;;;;;9.35;1.08;;;0.20;91.10;;;;;;4978806;28;20111;-77
2021/01/14 06:17:19;;;;;;;6.15;0.88;;;0.10;91.10;;;;;;5021551;28;20610;-77
2021/01/14 06:19:45;;;;;;;10.82;1.50;;;0.10;91.20;;;;;;5022702;28;20502;-77
2021/01/14 06:22:20;;;;;;;7.65;1.08;;;0.10;91.20;;;;;;5024308;28;20045;-77
2021/01/14 06:24:56;;;;;;;11.23;1.10;;;0.10;91.20;;;;;;5026059;28;20053;-77
2021/01/14 06:27:22;;;;;;;5.80;1.17;;;0.20;91.20;;;;;;5024409;28;20143;-77
2021/01/14 06:29:47;;;;;;;9.00;1.27;;;0.10;91.10;;;;;;5020240;28;20468;-77
2021/01/14 06:32:15;;;;;;;7.22;2.42;;;0.00;91.10;;;;;;5022033;28;20041;-77
2021/01/14 06:34:51;;;;;;;7.25;1.65;;;0.00;91.20;;;;;;5020890;28;20038;-77
2021/01/14 06:37:19;;;;;;;;;;;0.00;91.20;;;;;;5024023;28;20088;-77
2021/01/14 06:39:56;;;;;;;5.47;1.20;;;0.20;91.30;;;;;;5025773;28;20023;-77
2021/01/14 06:42:29;;;;;;;6.50;1.33;;;0.00;91.30;;;;;;5022734;28;20513;-77
2021/01/14 06:45:03;;;;;;;11.50;1.50;;;0.00;91.30;;;;;;5022702;28;20120;-77
2021/01/14 06:47:36;;;;;;;14.77;2.13;;;0.00;91.30;;;;;;5029958;28;20049;-77
2021/01/14 06:50:24;;;;;;;10.18;1.50;;;-0.10;91.20;;;;;;5026123;28;20048;-77
2021/01/14 06:52:59;;;;;;;10.80;1.70;;;-0.10;91.30;;;;;;5024516;28;20049;-77
2021/01/14 06:55:25;;;;;;;9.07;1.77;;;-0.10;91.70;;;;;;5025926;28;20033;-77
2021/01/14 06:58:11;;;;;;;11.05;2.45;;;-0.10;91.30;;;;;;5027538;28;20488;-77
2021/01/14 07:00:39;;;;;;;9.43;2.05;;;-0.10;91.20;;;;;;5022260;28;20037;-77
2021/01/14 07:03:14;;;;;;;4.68;1.20;;;-0.10;91.40;;;;;;5024563;28;20065;-77
2021/01/14 07:05:52;;;;;;;13.18;2.25;;;-0.10;91.60;;;;;;5021594;28;20030;-77
2021/01/14 07:08:37;;;;;;;9.88;2.13;;;-0.10;91.60;;;;;;5027670;28;20396;-77
2021/01/14 07:11:07;;;;;;;6.20;1.67;;;-0.10;91.70;;;;;;5027566;28;20120;-77
2021/01/14 07:13:47;;;;;;;9.38;2.03;;;-0.10;91.60;;;;;;5027110;28;20045;-78
2021/01/14 07:16:19;;;;;;;11.50;1.65;;;-0.10;91.60;;;;;;5027099;28;20046;-77
2021/01/14 07:18:45;;;;;;;8.00;1.60;;;-0.20;91.70;;;;;;5024241;28;20044;-77
2021/01/14 07:21:21;;;;;;;9.15;1.25;;;-0.30;91.40;;;;;;5032759;28;20037;-77
2021/01/14 07:23:54;;;;;;;11.75;2.08;;;-0.50;91.60;;;;;;5029873;28;20033;-77
2021/01/14 07:26:22;;;;;;;7.20;1.27;;;-0.50;92.00;;;;;;5022606;28;20041;-77
2021/01/14 07:28:49;;;;;;;8.02;1.83;;;-0.60;92.20;;;;;;5027825;28;20451;-77
2021/01/14 07:31:21;;;;;;;13.43;2.03;;;-0.60;92.40;;;;;;5021262;28;20041;-77
2021/01/14 07:33:47;;;;;;;35.88;3.25;;;-0.60;92.40;;;;;;5027324;28;20062;-76
2021/01/14 07:36:17;;;;;;;4.75;1.10;;;-0.60;92.20;;;;;;5025977;28;21455;-76
2021/01/14 07:38:48;;;;;;;7.50;1.38;;;-0.60;92.00;;;;;;5023631;28;20352;-76
2021/01/14 07:41:13;;;;;;;9.95;1.98;;;-0.70;92.20;;;;;;5022475;28;20116;-76
2021/01/14 07:43:40;;;;;;;17.48;2.05;;;-0.80;92.30;;;;;;5026528;28;20728;-76
2021/01/14 07:46:27;;;;;;;6.28;1.30;;;-0.80;92.60;;;;;;5031915;28;20033;-76
2021/01/14 07:48:53;;;;;;;6.03;1.33;;;-0.80;92.90;;;;;;5020330;28;20468;-76
2021/01/14 07:51:20;;;;;;;7.90;1.35;;;-0.80;93.10;;;;;;5022706;28;20041;-76
2021/01/14 07:54:06;;;;;;;35.15;4.10;;;-0.80;93.20;;;;;;5023115;28;20112;-76
2021/01/14 07:56:44;;;;;;;8.38;1.55;;;-0.80;93.30;;;;;;5024839;28;20061;-67
2021/01/14 07:59:11;;;;;;;11.30;1.38;;;-0.70;93.40;;;;;;5022308;28;20149;-67
2021/01/14 08:02:09;;;;;;;9.02;1.50;;;-0.70;93.30;;;;;;5026993;28;20041;-67
2021/01/14 08:04:52;;;;;;;7.30;1.27;;;-0.70;93.30;;;;;;5022458;28;20057;-67
2021/01/14 08:07:23;;;;;;;7.53;1.65;;;-0.70;93.20;;;;;;5026487;28;20080;-67
2021/01/14 08:09:50;;;;;;;7.53;1.70;;;-0.70;93.10;;;;;;5026756;28;20034;-67
2021/01/14 08:12:16;;;;;;;4.07;1.13;;;-0.70;92.90;;;;;;5023205;28;20077;-67
2021/01/14 08:14:42;;;;;;;9.85;1.77;;;-0.80;92.80;;;;;;5021660;28;20079;-67
2021/01/14 08:17:27;;;;;;;6.25;1.55;;;-0.80;92.90;;;;;;5026060;28;20037;-67
2021/01/14 08:19:54;;;;;;;6.45;1.70;;;-0.80;93.10;;;;;;5022745;28;20033;-67
2021/01/14 08:22:21;;;;;;;7.10;1.92;;;-0.80;93.00;;;;;;5023905;28;20049;-67
2021/01/14 08:25:02;;;;;;;7.03;1.33;;;-0.70;93.00;;;;;;5024074;28;20041;-67
2021/01/14 08:27:28;;;;;;;3.97;1.55;;;-0.70;92.90;;;;;;5024832;28;20051;-67
2021/01/14 08:30:02;;;;;;;7.57;1.63;;;-0.70;93.00;;;;;;5032238;28;20118;-67
2021/01/14 08:32:31;;;;;;;10.50;1.60;;;-0.60;92.90;;;;;;5028012;28;20049;-67
2021/01/14 08:35:12;;;;;;;5.70;1.48;;;-0.70;92.90;;;;;;5025880;28;20034;-67
2021/01/14 08:38:02;;;;;;;11.45;1.42;;;-0.60;92.70;;;;;;5023459;28;20042;-67
2021/01/14 08:40:32;;;;;;;8.82;2.47;;;-0.60;92.70;;;;;;5029947;28;20463;-67
2021/01/14 08:43:12;;;;;;;5.30;1.42;;;-0.50;92.60;;;;;;5025946;28;20386;-67
2021/01/14 08:45:49;;;;;;;6.25;1.48;;;-0.40;92.50;;;;;;5027552;28;20040;-67
2021/01/14 08:48:25;;;;;;;5.15;1.60;;;-0.40;92.30;;;;;;5020949;28;20061;-67
2021/01/14 08:50:54;;;;;;;6.88;2.10;;;-0.40;92.40;;;;;;5027351;28;20084;-67
2021/01/14 08:53:19;;;;;;;8.73;1.90;;;-0.40;92.50;;;;;;5031486;28;20412;-67
2021/01/14 08:56:08;;;;;;;10.73;2.05;;;-0.30;92.60;;;;;;5028306;28;20037;-67
2021/01/14 08:58:38;;;;;;;17.15;2.65;;;-0.30;92.50;;;;;;5028308;28;20044;-67
2021/01/14 09:01:06;;;;;;;9.68;2.20;;;-0.20;92.60;;;;;;5029145;28;20099;-67
2021/01/14 09:03:33;;;;;;;13.88;2.13;;;-0.20;92.70;;;;;;5025233;28;20033;-67
2021/01/14 09:05:59;;;;;;;27.40;3.72;;;-0.20;92.60;;;;;;5027180;28;20415;-68
2021/01/14 09:08:25;;;;;;;11.18;3.30;;;-0.10;92.50;;;;;;5026199;28;20033;-68
2021/01/14 09:10:53;;;;;;;11.68;2.85;;;0.00;92.50;;;;;;5026632;28;20042;-67
2021/01/14 09:13:24;;;;;;;10.00;2.42;;;0.10;92.60;;;;;;5022369;28;20049;-67
2021/01/14 09:15:53;;;;;;;14.65;2.88;;;0.20;92.40;;;;;;5025716;28;20041;-67
2021/01/14 09:18:35;;;;;;;14.65;2.95;;;0.20;92.30;;;;;;5027764;28;21590;-68
2021/01/14 09:21:02;;;;;;;9.52;2.75;;;0.30;92.20;;;;;;5024101;28;20053;-67
2021/01/14 09:23:33;;;;;;;8.10;3.03;;;0.40;92.00;;;;;;5018753;28;20477;-67
2021/01/14 09:26:04;;;;;;;8.95;2.70;;;0.50;92.00;;;;;;5022976;28;20046;-67
2021/01/14 09:28:35;;;;;;;7.43;2.63;;;0.60;91.90;;;;;;5026498;28;20033;-67
2021/01/14 09:31:03;;;;;;;13.93;3.55;;;0.70;92.10;;;;;;5026335;28;20037;-67
2021/01/14 09:33:35;;;;;;;11.90;3.60;;;0.70;91.70;;;;;;5024505;28;20056;-68
2021/01/14 09:36:07;;;;;;;8.75;3.60;;;0.90;91.50;;;;;;5027735;28;20050;-67
2021/01/14 09:38:51;;;;;;;10.70;3.83;;;0.90;91.60;;;;;;5027342;28;20424;-68
2021/01/14 09:41:38;;;;;;;11.63;3.90;;;1.00;91.80;;;;;;5028593;28;20080;-67
2021/01/14 09:44:14;;;;;;;9.02;3.38;;;1.00;91.20;;;;;;5024448;28;20045;-68
2021/01/14 09:46:45;;;;;;;12.32;2.95;;;1.10;91.20;;;;;;5028379;28;20452;-68
2021/01/14 09:49:16;;;;;;;12.38;3.60;;;1.20;91.00;;;;;;5022684;28;20033;-68
2021/01/14 09:51:43;;;;;;;16.25;4.32;;;1.20;90.90;;;;;;5025489;28;20095;-68
2021/01/14 09:54:11;;;;;;;10.93;3.38;;;1.30;90.80;;;;;;5022193;28;20116;-68
2021/01/14 09:56:49;;;;;;;10.40;3.35;;;1.30;91.00;;;;;;5024981;28;20041;-68
2021/01/14 09:59:43;;;;;;;10.48;3.63;;;1.30;90.90;;;;;;5027460;28;20061;-68
2021/01/14 10:02:24;;;;;;;7.38;3.25;;;1.40;91.00;;;;;;5029217;28;20497;-68
2021/01/14 10:04:56;;;;;;;11.35;3.55;;;1.50;90.70;;;;;;5026714;28;20048;-68
2021/01/14 10:07:23;;;;;;;9.20;4.22;;;1.50;90.90;;;;;;5027741;28;20053;-68
2021/01/14 10:09:50;;;;;;;13.90;3.50;;;1.60;90.90;;;;;;5031078;28;20116;-68
2021/01/14 10:12:16;;;;;;;13.40;4.72;;;1.60;90.90;;;;;;5028461;28;20037;-68
2021/01/14 10:14:42;;;;;;;10.02;3.55;;;1.60;90.90;;;;;;5027930;28;20096;-68
2021/01/14 10:17:12;;;;;;;14.15;3.65;;;1.60;90.80;;;;;;5029469;28;20045;-68
2021/01/14 10:19:41;;;;;;;26.67;5.28;;;1.60;90.80;;;;;;5028811;28;20033;-68
2021/01/14 10:22:07;;;;;;;16.27;5.00;;;1.70;90.90;;;;;;5030219;28;20041;-68
2021/01/14 10:24:34;;;;;;;9.85;3.60;;;1.90;90.70;;;;;;5022800;28;20504;-68
2021/01/14 10:27:24;;;;;;;11.40;3.38;;;2.10;90.40;;;;;;5027609;28;20042;-68
2021/01/14 10:29:55;;;;;;;7.13;3.58;;;2.20;90.10;;;;;;5031201;28;20427;-68
2021/01/14 10:32:24;;;;;;;11.88;3.90;;;2.30;89.40;;;;;;5027060;28;20041;-68
2021/01/14 10:34:54;;;;;;;10.90;3.60;;;2.40;90.00;;;;;;5024953;28;20046;-68
2021/01/14 10:37:30;;;;;;;15.07;3.83;;;2.40;89.60;;;;;;5029650;28;20176;-68
2021/01/14 10:39:58;;;;;;;8.60;3.53;;;2.40;88.50;;;;;;5023079;28;20033;-68
2021/01/14 10:42:35;;;;;;;15.90;3.70;;;2.50;88.00;;;;;;5025194;28;20044;-69
2021/01/14 10:45:07;;;;;;;13.60;3.08;;;2.50;88.50;;;;;;5025092;28;20048;-68
2021/01/14 10:47:33;;;;;;;14.75;3.70;;;2.60;87.30;;;;;;5027701;28;20105;-69
2021/01/14 10:50:00;;;;;;;8.02;3.35;;;2.70;87.00;;;;;;5023975;28;20041;-68
2021/01/14 10:52:25;;;;;;;11.23;3.92;;;2.60;87.20;;;;;;5026791;28;20037;-68
2021/01/14 10:54:59;;;;;;;8.05;3.50;;;2.60;87.30;;;;;;5022555;28;20041;-68
2021/01/14 10:57:55;;;;;;;12.00;3.80;;;2.50;87.30;;;;;;5027465;28;20041;-69
2021/01/14 11:00:22;;;;;;;8.15;3.13;;;2.40;87.60;;;;;;5024154;28;20052;-68
2021/01/14 11:03:02;;;;;;;11.20;3.60;;;2.40;88.00;;;;;;5026227;28;20034;-68
2021/01/14 11:05:40;;;;;;;9.93;3.72;;;2.40;87.70;;;;;;5020585;28;20053;-68
2021/01/14 11:08:12;;;;;;;7.90;3.35;;;2.40;87.80;;;;;;5024909;28;20097;-68
2021/01/14 11:10:38;;;;;;;10.10;4.13;;;2.70;88.40;;;;;;5023799;28;20052;-69
2021/01/14 11:13:08;;;;;;;12.02;3.78;;;2.40;88.60;;;;;;5024544;28;20067;-69
2021/01/14 11:15:34;;;;;;;9.93;4.28;;;2.50;88.00;;;;;;5020785;28;20033;-69
2021/01/14 11:18:02;;;;;;;16.45;4.22;;;2.50;87.90;;;;;;5025034;28;20135;-69
2021/01/14 11:20:28;;;;;;;8.95;3.83;;;2.60;88.50;;;;;;5024889;28;20033;-69
2021/01/14 11:22:53;;;;;;;8.00;3.65;;;2.60;86.50;;;;;;5022894;28;20041;-69
2021/01/14 11:25:20;;;;;;;9.38;3.72;;;2.70;87.20;;;;;;5024474;28;20050;-69
2021/01/14 11:27:45;;;;;;;10.80;3.83;;;2.70;86.80;;;;;;5024872;28;21059;-69
2021/01/14 11:30:12;;;;;;;11.65;3.95;;;2.70;86.10;;;;;;5021132;28;20104;-69
2021/01/14 11:32:37;;;;;;;10.77;3.53;;;2.80;86.60;;;;;;5021135;28;20109;-69
2021/01/14 11:35:04;;;;;;;10.80;3.72;;;2.90;86.60;;;;;;5022529;28;20531;-69
2021/01/14 11:37:29;;;;;;;11.25;4.28;;;3.00;86.30;;;;;;5025667;28;20392;-69
2021/01/14 11:39:55;;;;;;;8.18;3.80;;;2.90;86.40;;;;;;5025338;28;20048;-69
2021/01/14 11:42:21;;;;;;;13.30;3.80;;;3.00;86.90;;;;;;5028789;28;20507;-69
2021/01/14 11:44:46;;;;;;;7.53;3.78;;;3.10;85.70;;;;;;5023960;28;20057;-69
2021/01/14 11:47:12;;;;;;;9.52;4.28;;;3.20;85.80;;;;;;5022187;28;20557;-69
2021/01/14 11:49:38;;;;;;;7.55;4.18;;;3.20;86.30;;;;;;5020564;28;20044;-69
2021/01/14 11:52:04;;;;;;;7.95;4.10;;;3.20;85.30;;;;;;5023383;28;20515;-69
2021/01/14 11:54:30;;;;;;;9.75;4.35;;;3.30;86.20;;;;;;5023396;28;20067;-69
2021/01/14 11:56:58;;;;;;;8.15;3.88;;;3.40;86.20;;;;;;5023061;28;20088;-69
2021/01/14 11:59:24;;;;;;;7.90;4.22;;;3.40;85.30;;;;;;5024255;28;20228;-69
2021/01/14 12:01:50;;;;;;;7.85;3.58;;;3.40;85.00;;;;;;5030460;28;20456;-69
2021/01/14 12:04:15;;;;;;;8.35;4.05;;;3.40;84.50;;;;;;5026892;28;20440;-69
2021/01/14 12:06:41;;;;;;;10.95;3.92;;;3.40;84.00;;;;;;5027283;28;20473;-69
2021/01/14 12:09:07;;;;;;;10.95;4.05;;;3.30;84.70;;;;;;5025313;28;20168;-69
2021/01/14 12:11:32;;;;;;;8.93;3.95;;;3.40;84.70;;;;;;5028155;28;20116;-69
2021/01/14 12:13:58;;;;;;;10.10;3.20;;;3.40;84.60;;;;;;5030980;28;20655;-69
2021/01/14 12:16:24;;;;;;;10.27;4.25;;;3.50;84.50;;;;;;5027676;28;20521;-69
2021/01/14 12:18:50;;;;;;;14.20;5.05;;;3.40;84.00;;;;;;5029505;28;20037;-69
2021/01/14 12:21:18;;;;;;;7.18;4.15;;;3.40;84.50;;;;;;5033588;28;20408;-69
2021/01/14 12:23:45;;;;;;;7.90;4.03;;;3.40;85.60;;;;;;5028848;28;20037;-69
2021/01/14 12:26:12;;;;;;;12.38;4.03;;;3.50;84.00;;;;;;5026287;28;20120;-69
2021/01/14 12:28:37;;;;;;;8.27;3.92;;;3.40;84.50;;;;;;5030360;28;20535;-69
2021/01/14 12:31:03;;;;;;;10.68;3.80;;;3.40;83.60;;;;;;5033018;28;20052;-69
2021/01/14 12:33:29;;;;;;;7.60;3.78;;;3.40;83.90;;;;;;5028062;28;20040;-69
2021/01/14 12:35:55;;;;;;;9.20;4.13;;;3.40;83.90;;;;;;5027080;28;20088;-69
2021/01/14 12:38:21;;;;;;;9.68;4.00;;;3.30;83.40;;;;;;5028201;28;20483;-69
2021/01/14 12:40:47;;;;;;;7.43;3.58;;;3.10;82.60;;;;;;5029545;28;20599;-69
2021/01/14 12:43:13;;;;;;;12.32;4.43;;;3.00;83.20;;;;;;5029363;28;20120;-69
2021/01/14 12:45:39;;;;;;;8.07;4.07;;;2.80;83.90;;;;;;5022159;28;20073;-68
2021/01/14 12:48:05;;;;;;;7.85;4.50;;;2.70;84.90;;;;;;5026651;28;20072;-69
2021/01/14 12:50:31;;;;;;;9.00;3.95;;;2.60;85.90;;;;;;5028020;28;20483;-68
2021/01/14 12:52:58;;;;;;;8.32;3.83;;;2.50;86.20;;;;;;5027220;28;20069;-68
2021/01/14 12:55:24;;;;;;;6.03;3.88;;;2.40;86.70;;;;;;5024566;28;20029;-68
2021/01/14 12:57:50;;;;;;;9.20;4.22;;;2.40;87.20;;;;;;5018912;28;20540;-68
2021/01/14 13:00:15;;;;;;;17.17;6.38;;;2.40;88.00;;;;;;5024083;28;20033;-68
2021/01/14 13:02:41;;;;;;;8.98;4.68;;;2.40;87.60;;;;;;5025150;28;20038;-68
2021/01/14 13:05:08;;;;;;;11.13;4.25;;;2.30;88.50;;;;;;5028138;28;20041;-68